sensor_id;sensor_type;location;lat;lon;timestamp;P1;durP1;ratioP1;P2;durP2;ratioP2
2452;SDS011;63678;47.994;7.854;2023-04-01T00:01:30;4.10;;;1.75;;
2452;SDS011;63678;47.994;7.854;2023-04-01T00:04:03;4.90;;;1.70;;
2452;SDS011;63678;47.994;7.854;2023-04-01T00:06:36;3.47;;;1.88;;
2452;SDS011;63678;47.994;7.854;2023-04-01T00:09:08;3.08;;;1.40;;
2452;SDS011;63678;47.994;7.854;2023-04-01T00:11:41;4.43;;;1.77;;
2452;SDS011;63678;47.994;7.854;2023-04-01T00:14:14;4.45;;;1.90;;
2452;SDS011;63678;47.994;7.854;2023-04-01T00:16:49;4.80;;;1.80;;
2452;SDS011;63678;47.994;7.854;2023-04-01T00:19:23;3.40;;;1.63;;
2452;SDS011;63678;47.994;7.854;2023-04-01T00:21:56;3.75;;;1.70;;
2452;SDS011;63678;47.994;7.854;2023-04-01T00:24:29;4.72;;;1.50;;
2452;SDS011;63678;47.994;7.854;2023-04-01T00:27:01;4.03;;;1.52;;
2452;SDS011;63678;47.994;7.854;2023-04-01T00:29:36;3.30;;;1.73;;
2452;SDS011;63678;47.994;7.854;2023-04-01T00:32:09;5.57;;;1.63;;
2452;SDS011;63678;47.994;7.854;2023-04-01T00:34:42;6.32;;;2.38;;
2452;SDS011;63678;47.994;7.854;2023-04-01T00:37:15;5.55;;;2.05;;
2452;SDS011;63678;47.994;7.854;2023-04-01T00:39:48;7.10;;;2.00;;
2452;SDS011;63678;47.994;7.854;2023-04-01T00:42:20;8.47;;;2.33;;
2452;SDS011;63678;47.994;7.854;2023-04-01T00:44:53;7.90;;;2.13;;
2452;SDS011;63678;47.994;7.854;2023-04-01T00:47:26;8.43;;;2.35;;
2452;SDS011;63678;47.994;7.854;2023-04-01T00:49:59;6.60;;;2.20;;
2452;SDS011;63678;47.994;7.854;2023-04-01T00:52:31;7.03;;;2.60;;
2452;SDS011;63678;47.994;7.854;2023-04-01T00:55:04;12.40;;;4.00;;
2452;SDS011;63678;47.994;7.854;2023-04-01T00:57:39;8.98;;;2.17;;
2452;SDS011;63678;47.994;7.854;2023-04-01T01:00:14;6.90;;;2.00;;
2452;SDS011;63678;47.994;7.854;2023-04-01T01:02:51;10.35;;;3.25;;
2452;SDS011;63678;47.994;7.854;2023-04-01T01:05:27;7.15;;;2.20;;
2452;SDS011;63678;47.994;7.854;2023-04-01T01:08:27;9.97;;;3.50;;
2452;SDS011;63678;47.994;7.854;2023-04-01T01:11:50;7.13;;;2.17;;
2452;SDS011;63678;47.994;7.854;2023-04-01T01:17:25;13.32;;;3.08;;
2452;SDS011;63678;47.994;7.854;2023-04-01T01:20:18;9.10;;;2.45;;
2452;SDS011;63678;47.994;7.854;2023-04-01T01:23:33;8.43;;;2.60;;
2452;SDS011;63678;47.994;7.854;2023-04-01T01:26:39;8.60;;;2.08;;
2452;SDS011;63678;47.994;7.854;2023-04-01T01:35:43;12.50;;;3.22;;
2452;SDS011;63678;47.994;7.854;2023-04-01T01:38:28;13.00;;;2.80;;
2452;SDS011;63678;47.994;7.854;2023-04-01T01:41:05;7.43;;;2.15;;
2452;SDS011;63678;47.994;7.854;2023-04-01T01:43:40;11.43;;;2.90;;
2452;SDS011;63678;47.994;7.854;2023-04-01T01:46:20;12.23;;;3.33;;
2452;SDS011;63678;47.994;7.854;2023-04-01T01:48:55;14.60;;;3.25;;
2452;SDS011;63678;47.994;7.854;2023-04-01T01:51:30;9.80;;;2.30;;
2452;SDS011;63678;47.994;7.854;2023-04-01T01:54:05;10.23;;;2.67;;
2452;SDS011;63678;47.994;7.854;2023-04-01T01:56:37;9.88;;;2.47;;
2452;SDS011;63678;47.994;7.854;2023-04-01T01:59:11;10.65;;;2.95;;
2452;SDS011;63678;47.994;7.854;2023-04-01T02:01:50;10.15;;;2.60;;
2452;SDS011;63678;47.994;7.854;2023-04-01T02:04:25;8.90;;;2.63;;
2452;SDS011;63678;47.994;7.854;2023-04-01T02:07:02;14.45;;;2.63;;
2452;SDS011;63678;47.994;7.854;2023-04-01T02:09:38;11.10;;;2.72;;
2452;SDS011;63678;47.994;7.854;2023-04-01T02:12:12;12.65;;;2.67;;
2452;SDS011;63678;47.994;7.854;2023-04-01T02:17:53;9.67;;;2.90;;
2452;SDS011;63678;47.994;7.854;2023-04-01T02:20:28;11.90;;;2.42;;
2452;SDS011;63678;47.994;7.854;2023-04-01T02:23:01;17.02;;;4.53;;
2452;SDS011;63678;47.994;7.854;2023-04-01T02:25:35;10.85;;;4.35;;
2452;SDS011;63678;47.994;7.854;2023-04-01T02:28:09;10.63;;;2.70;;
2452;SDS011;63678;47.994;7.854;2023-04-01T02:30:43;12.68;;;2.42;;
2452;SDS011;63678;47.994;7.854;2023-04-01T02:33:16;11.88;;;2.55;;
2452;SDS011;63678;47.994;7.854;2023-04-01T02:35:50;9.40;;;2.35;;
2452;SDS011;63678;47.994;7.854;2023-04-01T02:38:22;13.45;;;2.75;;
2452;SDS011;63678;47.994;7.854;2023-04-01T02:40:59;9.73;;;3.30;;
2452;SDS011;63678;47.994;7.854;2023-04-01T02:43:32;10.13;;;2.23;;
2452;SDS011;63678;47.994;7.854;2023-04-01T02:46:05;14.45;;;2.88;;
2452;SDS011;63678;47.994;7.854;2023-04-01T02:48:37;11.05;;;2.33;;
2452;SDS011;63678;47.994;7.854;2023-04-01T02:51:10;8.70;;;2.33;;
2452;SDS011;63678;47.994;7.854;2023-04-01T02:53:42;10.55;;;2.17;;
2452;SDS011;63678;47.994;7.854;2023-04-01T02:56:15;10.80;;;2.90;;
2452;SDS011;63678;47.994;7.854;2023-04-01T02:58:47;7.78;;;2.00;;
2452;SDS011;63678;47.994;7.854;2023-04-01T03:01:20;9.48;;;2.45;;
2452;SDS011;63678;47.994;7.854;2023-04-01T03:03:53;13.77;;;2.88;;
2452;SDS011;63678;47.994;7.854;2023-04-01T03:06:25;11.88;;;2.45;;
2452;SDS011;63678;47.994;7.854;2023-04-01T03:09:01;12.70;;;2.97;;
2452;SDS011;63678;47.994;7.854;2023-04-01T03:11:34;11.02;;;3.03;;
2452;SDS011;63678;47.994;7.854;2023-04-01T03:14:07;10.30;;;2.25;;
2452;SDS011;63678;47.994;7.854;2023-04-01T03:16:40;11.50;;;2.70;;
2452;SDS011;63678;47.994;7.854;2023-04-01T03:19:13;16.25;;;2.55;;
2452;SDS011;63678;47.994;7.854;2023-04-01T03:21:46;10.03;;;2.40;;
2452;SDS011;63678;47.994;7.854;2023-04-01T03:24:19;12.05;;;2.45;;
2452;SDS011;63678;47.994;7.854;2023-04-01T03:26:52;9.73;;;2.67;;
2452;SDS011;63678;47.994;7.854;2023-04-01T03:29:25;8.75;;;2.38;;
2452;SDS011;63678;47.994;7.854;2023-04-01T03:31:57;10.88;;;2.60;;
2452;SDS011;63678;47.994;7.854;2023-04-01T03:34:30;8.30;;;2.03;;
2452;SDS011;63678;47.994;7.854;2023-04-01T03:37:03;6.03;;;2.10;;
2452;SDS011;63678;47.994;7.854;2023-04-01T03:39:35;10.20;;;2.08;;
2452;SDS011;63678;47.994;7.854;2023-04-01T03:42:08;9.60;;;2.25;;
2452;SDS011;63678;47.994;7.854;2023-04-01T03:44:41;8.73;;;1.98;;
2452;SDS011;63678;47.994;7.854;2023-04-01T03:47:15;9.13;;;1.90;;
2452;SDS011;63678;47.994;7.854;2023-04-01T03:49:47;8.00;;;2.13;;
2452;SDS011;63678;47.994;7.854;2023-04-01T03:52:20;8.43;;;3.47;;
2452;SDS011;63678;47.994;7.854;2023-04-01T03:54:52;8.43;;;2.30;;
2452;SDS011;63678;47.994;7.854;2023-04-01T03:57:25;11.15;;;2.20;;
2452;SDS011;63678;47.994;7.854;2023-04-01T04:00:00;8.70;;;2.07;;
2452;SDS011;63678;47.994;7.854;2023-04-01T04:02:44;9.00;;;2.15;;
2452;SDS011;63678;47.994;7.854;2023-04-01T04:05:22;7.50;;;1.83;;
2452;SDS011;63678;47.994;7.854;2023-04-01T04:07:56;8.23;;;2.00;;
2452;SDS011;63678;47.994;7.854;2023-04-01T04:10:28;5.25;;;1.70;;
2452;SDS011;63678;47.994;7.854;2023-04-01T04:13:01;4.63;;;1.80;;
2452;SDS011;63678;47.994;7.854;2023-04-01T04:15:35;5.95;;;1.70;;
2452;SDS011;63678;47.994;7.854;2023-04-01T04:18:07;7.50;;;2.13;;
2452;SDS011;63678;47.994;7.854;2023-04-01T04:20:49;6.80;;;2.00;;
2452;SDS011;63678;47.994;7.854;2023-04-01T04:23:23;6.72;;;2.30;;
2452;SDS011;63678;47.994;7.854;2023-04-01T04:26:03;7.53;;;2.07;;
2452;SDS011;63678;47.994;7.854;2023-04-01T04:28:39;7.53;;;2.30;;
2452;SDS011;63678;47.994;7.854;2023-04-01T04:31:22;5.10;;;2.05;;
2452;SDS011;63678;47.994;7.854;2023-04-01T04:33:59;4.57;;;1.73;;
2452;SDS011;63678;47.994;7.854;2023-04-01T04:36:38;9.90;;;2.38;;
2452;SDS011;63678;47.994;7.854;2023-04-01T04:39:11;10.60;;;2.03;;
2452;SDS011;63678;47.994;7.854;2023-04-01T04:41:45;7.45;;;2.45;;
2452;SDS011;63678;47.994;7.854;2023-04-01T04:44:18;6.82;;;2.00;;
2452;SDS011;63678;47.994;7.854;2023-04-01T04:46:50;9.30;;;2.45;;
2452;SDS011;63678;47.994;7.854;2023-04-01T04:49:23;9.27;;;2.13;;
2452;SDS011;63678;47.994;7.854;2023-04-01T04:51:55;10.10;;;2.20;;
2452;SDS011;63678;47.994;7.854;2023-04-01T04:54:30;12.30;;;2.35;;
2452;SDS011;63678;47.994;7.854;2023-04-01T04:57:05;4.90;;;2.15;;
2452;SDS011;63678;47.994;7.854;2023-04-01T04:59:44;8.90;;;2.00;;
2452;SDS011;63678;47.994;7.854;2023-04-01T05:02:23;6.25;;;2.10;;
2452;SDS011;63678;47.994;7.854;2023-04-01T05:04:56;8.60;;;2.13;;
2452;SDS011;63678;47.994;7.854;2023-04-01T05:07:29;8.32;;;2.05;;
2452;SDS011;63678;47.994;7.854;2023-04-01T05:10:02;10.20;;;2.05;;
2452;SDS011;63678;47.994;7.854;2023-04-01T05:12:34;5.28;;;1.67;;
2452;SDS011;63678;47.994;7.854;2023-04-01T05:15:12;10.15;;;2.20;;
2452;SDS011;63678;47.994;7.854;2023-04-01T05:17:45;7.47;;;1.87;;
2452;SDS011;63678;47.994;7.854;2023-04-01T05:20:19;8.40;;;2.40;;
2452;SDS011;63678;47.994;7.854;2023-04-01T05:22:55;7.85;;;2.22;;
2452;SDS011;63678;47.994;7.854;2023-04-01T05:25:28;6.43;;;1.95;;
2452;SDS011;63678;47.994;7.854;2023-04-01T05:28:02;13.77;;;3.05;;
2452;SDS011;63678;47.994;7.854;2023-04-01T05:30:34;6.57;;;1.90;;
2452;SDS011;63678;47.994;7.854;2023-04-01T05:33:18;6.60;;;1.67;;
2452;SDS011;63678;47.994;7.854;2023-04-01T05:35:51;10.43;;;2.33;;
2452;SDS011;63678;47.994;7.854;2023-04-01T05:38:24;7.78;;;2.22;;
2452;SDS011;63678;47.994;7.854;2023-04-01T05:40:59;6.72;;;1.92;;
2452;SDS011;63678;47.994;7.854;2023-04-01T05:43:35;6.00;;;2.07;;
2452;SDS011;63678;47.994;7.854;2023-04-01T05:46:31;7.82;;;1.88;;
2452;SDS011;63678;47.994;7.854;2023-04-01T05:49:17;7.50;;;2.38;;
2452;SDS011;63678;47.994;7.854;2023-04-01T05:51:51;11.32;;;2.00;;
2452;SDS011;63678;47.994;7.854;2023-04-01T05:54:23;8.98;;;2.40;;
2452;SDS011;63678;47.994;7.854;2023-04-01T05:56:56;5.10;;;2.10;;
2452;SDS011;63678;47.994;7.854;2023-04-01T05:59:28;9.88;;;2.78;;
2452;SDS011;63678;47.994;7.854;2023-04-01T06:02:03;8.68;;;1.92;;
2452;SDS011;63678;47.994;7.854;2023-04-01T06:04:39;7.30;;;1.92;;
2452;SDS011;63678;47.994;7.854;2023-04-01T06:07:14;7.00;;;2.63;;
2452;SDS011;63678;47.994;7.854;2023-04-01T06:09:48;6.83;;;2.03;;
2452;SDS011;63678;47.994;7.854;2023-04-01T06:15:20;6.45;;;2.05;;
2452;SDS011;63678;47.994;7.854;2023-04-01T06:30:43;5.80;;;1.80;;
2452;SDS011;63678;47.994;7.854;2023-04-01T06:33:35;6.00;;;1.73;;
2452;SDS011;63678;47.994;7.854;2023-04-01T06:37:00;5.65;;;1.98;;
2452;SDS011;63678;47.994;7.854;2023-04-01T06:40:24;7.53;;;2.17;;
2452;SDS011;63678;47.994;7.854;2023-04-01T06:55:47;4.25;;;1.70;;
2452;SDS011;63678;47.994;7.854;2023-04-01T06:58:43;5.53;;;2.00;;
2452;SDS011;63678;47.994;7.854;2023-04-01T07:01:32;5.35;;;1.63;;
2452;SDS011;63678;47.994;7.854;2023-04-01T07:07:10;5.32;;;1.55;;
2452;SDS011;63678;47.994;7.854;2023-04-01T07:10:09;5.50;;;1.57;;
2452;SDS011;63678;47.994;7.854;2023-04-01T07:13:55;4.88;;;1.73;;
2452;SDS011;63678;47.994;7.854;2023-04-01T07:19:22;6.80;;;1.70;;
2452;SDS011;63678;47.994;7.854;2023-04-01T07:22:39;6.38;;;2.10;;
2452;SDS011;63678;47.994;7.854;2023-04-01T07:25:25;6.40;;;1.70;;
2452;SDS011;63678;47.994;7.854;2023-04-01T07:28:38;6.68;;;1.60;;
2452;SDS011;63678;47.994;7.854;2023-04-01T07:35:03;4.60;;;1.80;;
2452;SDS011;63678;47.994;7.854;2023-04-01T07:40:47;6.78;;;2.00;;
2452;SDS011;63678;47.994;7.854;2023-04-01T07:49:46;4.32;;;1.63;;
2452;SDS011;63678;47.994;7.854;2023-04-01T07:52:34;6.90;;;1.80;;
2452;SDS011;63678;47.994;7.854;2023-04-01T07:55:33;5.55;;;2.15;;
2452;SDS011;63678;47.994;7.854;2023-04-01T07:58:52;5.63;;;1.80;;
2452;SDS011;63678;47.994;7.854;2023-04-01T08:02:01;9.38;;;1.80;;
2452;SDS011;63678;47.994;7.854;2023-04-01T08:08:29;5.93;;;1.83;;
2452;SDS011;63678;47.994;7.854;2023-04-01T08:18:08;5.40;;;2.00;;
2452;SDS011;63678;47.994;7.854;2023-04-01T08:20:58;4.65;;;1.80;;
2452;SDS011;63678;47.994;7.854;2023-04-01T08:23:38;4.15;;;1.80;;
2452;SDS011;63678;47.994;7.854;2023-04-01T08:26:28;4.53;;;1.75;;
2452;SDS011;63678;47.994;7.854;2023-04-01T08:29:25;6.60;;;2.15;;
2452;SDS011;63678;47.994;7.854;2023-04-01T08:32:14;7.28;;;1.90;;
2452;SDS011;63678;47.994;7.854;2023-04-01T08:35:07;4.07;;;1.40;;
2452;SDS011;63678;47.994;7.854;2023-04-01T08:37:48;5.15;;;1.85;;
2452;SDS011;63678;47.994;7.854;2023-04-01T08:40:35;4.53;;;1.80;;
2452;SDS011;63678;47.994;7.854;2023-04-01T08:43:25;5.60;;;2.17;;
2452;SDS011;63678;47.994;7.854;2023-04-01T08:53:00;9.52;;;1.83;;
2452;SDS011;63678;47.994;7.854;2023-04-01T08:59:11;5.57;;;1.98;;
2452;SDS011;63678;47.994;7.854;2023-04-01T09:14:30;7.22;;;2.38;;
2452;SDS011;63678;47.994;7.854;2023-04-01T09:17:39;4.75;;;1.67;;
2452;SDS011;63678;47.994;7.854;2023-04-01T09:20:35;4.78;;;1.85;;
2452;SDS011;63678;47.994;7.854;2023-04-01T09:23:40;5.10;;;2.10;;
2452;SDS011;63678;47.994;7.854;2023-04-01T09:51:44;9.32;;;2.00;;
2452;SDS011;63678;47.994;7.854;2023-04-01T09:54:42;4.93;;;1.98;;
2452;SDS011;63678;47.994;7.854;2023-04-01T09:57:50;6.57;;;1.60;;
2452;SDS011;63678;47.994;7.854;2023-04-01T10:01:07;8.02;;;1.85;;
2452;SDS011;63678;47.994;7.854;2023-04-01T10:10:56;6.10;;;2.00;;
2452;SDS011;63678;47.994;7.854;2023-04-01T10:16:37;3.47;;;1.55;;
2452;SDS011;63678;47.994;7.854;2023-04-01T10:22:36;4.70;;;1.42;;
2452;SDS011;63678;47.994;7.854;2023-04-01T10:41:52;4.88;;;2.30;;
2452;SDS011;63678;47.994;7.854;2023-04-01T10:48:57;4.55;;;2.15;;
2452;SDS011;63678;47.994;7.854;2023-04-01T10:59:15;6.00;;;1.70;;
2452;SDS011;63678;47.994;7.854;2023-04-01T11:23:02;3.92;;;1.90;;
2452;SDS011;63678;47.994;7.854;2023-04-01T11:26:08;5.25;;;1.90;;
2452;SDS011;63678;47.994;7.854;2023-04-01T11:29:24;5.80;;;1.98;;
2452;SDS011;63678;47.994;7.854;2023-04-01T11:32:54;7.00;;;1.90;;
2452;SDS011;63678;47.994;7.854;2023-04-01T11:45:35;3.92;;;1.98;;
2452;SDS011;63678;47.994;7.854;2023-04-01T11:48:23;4.93;;;2.00;;
2452;SDS011;63678;47.994;7.854;2023-04-01T11:57:36;6.18;;;2.08;;
2452;SDS011;63678;47.994;7.854;2023-04-01T12:00:55;4.90;;;2.00;;
2452;SDS011;63678;47.994;7.854;2023-04-01T12:03:54;4.88;;;1.70;;
2452;SDS011;63678;47.994;7.854;2023-04-01T12:10:12;4.95;;;1.80;;
2452;SDS011;63678;47.994;7.854;2023-04-01T12:13:02;5.38;;;1.90;;
2452;SDS011;63678;47.994;7.854;2023-04-01T12:19:08;5.47;;;2.00;;
2452;SDS011;63678;47.994;7.854;2023-04-01T12:24:47;3.30;;;1.40;;
2452;SDS011;63678;47.994;7.854;2023-04-01T12:28:03;5.50;;;1.90;;
2452;SDS011;63678;47.994;7.854;2023-04-01T12:31:06;3.90;;;1.83;;
2452;SDS011;63678;47.994;7.854;2023-04-01T12:34:28;4.32;;;1.70;;
2452;SDS011;63678;47.994;7.854;2023-04-01T12:38:13;5.15;;;2.08;;
2452;SDS011;63678;47.994;7.854;2023-04-01T12:50:23;4.15;;;2.00;;
2452;SDS011;63678;47.994;7.854;2023-04-01T12:53:11;5.22;;;2.17;;
2452;SDS011;63678;47.994;7.854;2023-04-01T13:03:31;4.45;;;1.70;;
2452;SDS011;63678;47.994;7.854;2023-04-01T13:06:44;6.38;;;2.10;;
2452;SDS011;63678;47.994;7.854;2023-04-01T13:09:56;3.90;;;1.70;;
2452;SDS011;63678;47.994;7.854;2023-04-01T13:13:07;4.20;;;2.00;;
2452;SDS011;63678;47.994;7.854;2023-04-01T13:25:15;4.72;;;1.80;;
2452;SDS011;63678;47.994;7.854;2023-04-01T13:28:09;3.67;;;1.80;;
2452;SDS011;63678;47.994;7.854;2023-04-01T13:31:02;4.35;;;1.90;;
2452;SDS011;63678;47.994;7.854;2023-04-01T13:39:46;4.43;;;1.80;;
2452;SDS011;63678;47.994;7.854;2023-04-01T13:42:36;4.18;;;1.80;;
2452;SDS011;63678;47.994;7.854;2023-04-01T13:45:21;4.75;;;1.80;;
2452;SDS011;63678;47.994;7.854;2023-04-01T13:48:02;3.70;;;1.85;;
2452;SDS011;63678;47.994;7.854;2023-04-01T13:54:00;3.80;;;1.77;;
2452;SDS011;63678;47.994;7.854;2023-04-01T13:59:40;5.35;;;2.17;;
2452;SDS011;63678;47.994;7.854;2023-04-01T14:02:34;5.55;;;1.67;;
2452;SDS011;63678;47.994;7.854;2023-04-01T14:05:48;6.70;;;1.70;;
2452;SDS011;63678;47.994;7.854;2023-04-01T14:09:04;3.63;;;1.90;;
2452;SDS011;63678;47.994;7.854;2023-04-01T14:18:22;6.43;;;1.90;;
2452;SDS011;63678;47.994;7.854;2023-04-01T14:39:22;5.15;;;1.75;;
2452;SDS011;63678;47.994;7.854;2023-04-01T14:42:23;5.93;;;2.10;;
2452;SDS011;63678;47.994;7.854;2023-04-01T14:45:19;4.55;;;1.90;;
2452;SDS011;63678;47.994;7.854;2023-04-01T14:51:29;4.40;;;1.90;;
2452;SDS011;63678;47.994;7.854;2023-04-01T14:56:43;4.05;;;2.30;;
2452;SDS011;63678;47.994;7.854;2023-04-01T15:01:57;4.57;;;1.90;;
2452;SDS011;63678;47.994;7.854;2023-04-01T15:05:15;6.57;;;2.97;;
2452;SDS011;63678;47.994;7.854;2023-04-01T15:13:42;4.00;;;1.80;;
2452;SDS011;63678;47.994;7.854;2023-04-01T15:16:32;3.85;;;1.63;;
2452;SDS011;63678;47.994;7.854;2023-04-01T15:28:51;3.05;;;1.50;;
2452;SDS011;63678;47.994;7.854;2023-04-01T15:34:35;3.22;;;1.50;;
2452;SDS011;63678;47.994;7.854;2023-04-01T15:37:55;3.38;;;1.70;;
2452;SDS011;63678;47.994;7.854;2023-04-01T15:43:27;4.75;;;1.65;;
2452;SDS011;63678;47.994;7.854;2023-04-01T15:58:17;3.38;;;1.50;;
2452;SDS011;63678;47.994;7.854;2023-04-01T16:04:07;3.33;;;1.63;;
2452;SDS011;63678;47.994;7.854;2023-04-01T16:07:18;4.35;;;1.67;;
2452;SDS011;63678;47.994;7.854;2023-04-01T16:19:51;5.85;;;2.20;;
2452;SDS011;63678;47.994;7.854;2023-04-01T16:22:37;4.07;;;2.08;;
2452;SDS011;63678;47.994;7.854;2023-04-01T16:31:06;3.70;;;1.70;;
2452;SDS011;63678;47.994;7.854;2023-04-01T16:33:49;4.97;;;1.88;;
2452;SDS011;63678;47.994;7.854;2023-04-01T16:39:38;3.38;;;1.50;;
2452;SDS011;63678;47.994;7.854;2023-04-01T16:42:31;4.15;;;1.80;;
2452;SDS011;63678;47.994;7.854;2023-04-01T16:45:22;6.22;;;2.20;;
2452;SDS011;63678;47.994;7.854;2023-04-01T16:48:24;5.75;;;2.28;;
2452;SDS011;63678;47.994;7.854;2023-04-01T16:51:26;7.90;;;2.67;;
2452;SDS011;63678;47.994;7.854;2023-04-01T16:57:02;4.95;;;2.20;;
2452;SDS011;63678;47.994;7.854;2023-04-01T16:59:55;6.18;;;3.00;;
2452;SDS011;63678;47.994;7.854;2023-04-01T17:05:49;5.22;;;1.92;;
2452;SDS011;63678;47.994;7.854;2023-04-01T17:08:42;6.05;;;1.90;;
2452;SDS011;63678;47.994;7.854;2023-04-01T17:14:46;4.63;;;1.70;;
2452;SDS011;63678;47.994;7.854;2023-04-01T17:21:19;3.95;;;2.00;;
2452;SDS011;63678;47.994;7.854;2023-04-01T17:24:04;5.20;;;2.00;;
2452;SDS011;63678;47.994;7.854;2023-04-01T17:39:49;5.28;;;2.10;;
2452;SDS011;63678;47.994;7.854;2023-04-01T17:42:42;6.35;;;2.33;;
2452;SDS011;63678;47.994;7.854;2023-04-01T17:45:33;6.60;;;1.90;;
2452;SDS011;63678;47.994;7.854;2023-04-01T17:51:24;5.07;;;2.30;;
2452;SDS011;63678;47.994;7.854;2023-04-01T17:57:41;5.05;;;2.08;;
2452;SDS011;63678;47.994;7.854;2023-04-01T18:07:17;4.78;;;1.83;;
2452;SDS011;63678;47.994;7.854;2023-04-01T18:17:25;5.35;;;2.42;;
2452;SDS011;63678;47.994;7.854;2023-04-01T18:23:24;7.85;;;2.80;;
2452;SDS011;63678;47.994;7.854;2023-04-01T18:26:08;4.72;;;2.40;;
2452;SDS011;63678;47.994;7.854;2023-04-01T18:35:31;3.70;;;1.80;;
2452;SDS011;63678;47.994;7.854;2023-04-01T18:38:29;5.05;;;2.50;;
2452;SDS011;63678;47.994;7.854;2023-04-01T18:41:13;4.07;;;2.10;;
2452;SDS011;63678;47.994;7.854;2023-04-01T18:47:33;5.38;;;2.33;;
2452;SDS011;63678;47.994;7.854;2023-04-01T18:56:39;6.65;;;2.35;;
2452;SDS011;63678;47.994;7.854;2023-04-01T18:59:25;6.30;;;2.10;;
2452;SDS011;63678;47.994;7.854;2023-04-01T19:07:44;5.22;;;2.40;;
2452;SDS011;63678;47.994;7.854;2023-04-01T19:10:25;4.68;;;2.60;;
2452;SDS011;63678;47.994;7.854;2023-04-01T19:13:19;6.70;;;1.80;;
2452;SDS011;63678;47.994;7.854;2023-04-01T19:25:40;3.80;;;2.20;;
2452;SDS011;63678;47.994;7.854;2023-04-01T19:28:26;5.97;;;2.15;;
2452;SDS011;63678;47.994;7.854;2023-04-01T19:34:21;4.57;;;2.08;;
2452;SDS011;63678;47.994;7.854;2023-04-01T19:37:35;4.07;;;1.92;;
2452;SDS011;63678;47.994;7.854;2023-04-01T19:40:57;5.72;;;2.30;;
2452;SDS011;63678;47.994;7.854;2023-04-01T19:43:50;5.45;;;2.10;;
2452;SDS011;63678;47.994;7.854;2023-04-01T19:46:44;5.00;;;1.65;;
2452;SDS011;63678;47.994;7.854;2023-04-01T19:52:58;6.28;;;1.90;;
2452;SDS011;63678;47.994;7.854;2023-04-01T19:55:46;5.15;;;2.13;;
2452;SDS011;63678;47.994;7.854;2023-04-01T20:01:38;3.83;;;1.80;;
2452;SDS011;63678;47.994;7.854;2023-04-01T20:04:24;5.10;;;1.90;;
2452;SDS011;63678;47.994;7.854;2023-04-01T20:07:14;4.72;;;1.80;;
2452;SDS011;63678;47.994;7.854;2023-04-01T20:15:45;4.32;;;1.85;;
2452;SDS011;63678;47.994;7.854;2023-04-01T20:21:34;5.00;;;1.90;;
2452;SDS011;63678;47.994;7.854;2023-04-01T20:26:49;3.58;;;1.80;;
2452;SDS011;63678;47.994;7.854;2023-04-01T20:32:44;4.82;;;1.70;;
2452;SDS011;63678;47.994;7.854;2023-04-01T20:50:50;6.25;;;2.00;;
2452;SDS011;63678;47.994;7.854;2023-04-01T21:05:40;5.40;;;2.10;;
2452;SDS011;63678;47.994;7.854;2023-04-01T21:09:01;4.05;;;1.75;;
2452;SDS011;63678;47.994;7.854;2023-04-01T21:24:03;4.03;;;2.05;;
2452;SDS011;63678;47.994;7.854;2023-04-01T21:26:47;4.72;;;1.90;;
2452;SDS011;63678;47.994;7.854;2023-04-01T21:32:53;3.63;;;1.88;;
2452;SDS011;63678;47.994;7.854;2023-04-01T21:50:39;5.82;;;2.45;;
2452;SDS011;63678;47.994;7.854;2023-04-01T21:56:53;4.95;;;2.03;;
2452;SDS011;63678;47.994;7.854;2023-04-01T22:00:08;3.92;;;2.20;;
2452;SDS011;63678;47.994;7.854;2023-04-01T22:09:03;4.32;;;1.83;;
2452;SDS011;63678;47.994;7.854;2023-04-01T22:20:38;4.30;;;2.00;;
2452;SDS011;63678;47.994;7.854;2023-04-01T22:23:43;3.83;;;1.95;;
2452;SDS011;63678;47.994;7.854;2023-04-01T22:26:59;3.85;;;1.45;;
2452;SDS011;63678;47.994;7.854;2023-04-01T22:32:47;6.13;;;1.50;;
2452;SDS011;63678;47.994;7.854;2023-04-01T22:35:27;3.57;;;1.80;;
2452;SDS011;63678;47.994;7.854;2023-04-01T22:41:19;4.97;;;2.10;;
2452;SDS011;63678;47.994;7.854;2023-04-01T22:44:16;5.30;;;1.80;;
2452;SDS011;63678;47.994;7.854;2023-04-01T22:47:12;4.75;;;2.10;;
2452;SDS011;63678;47.994;7.854;2023-04-01T22:50:03;3.97;;;1.80;;
2452;SDS011;63678;47.994;7.854;2023-04-01T22:53:17;6.20;;;1.90;;
2452;SDS011;63678;47.994;7.854;2023-04-01T22:56:18;4.75;;;2.08;;
2452;SDS011;63678;47.994;7.854;2023-04-01T22:58:57;4.55;;;2.10;;
2452;SDS011;63678;47.994;7.854;2023-04-01T23:02:03;4.30;;;1.95;;
2452;SDS011;63678;47.994;7.854;2023-04-01T23:04:54;5.00;;;2.03;;
2452;SDS011;63678;47.994;7.854;2023-04-01T23:10:42;6.88;;;2.13;;
2452;SDS011;63678;47.994;7.854;2023-04-01T23:13:27;4.88;;;2.08;;
2452;SDS011;63678;47.994;7.854;2023-04-01T23:16:11;3.65;;;1.90;;
2452;SDS011;63678;47.994;7.854;2023-04-01T23:18:46;4.77;;;2.03;;
2452;SDS011;63678;47.994;7.854;2023-04-01T23:21:51;4.82;;;1.92;;
2452;SDS011;63678;47.994;7.854;2023-04-01T23:29:45;4.00;;;2.00;;
2452;SDS011;63678;47.994;7.854;2023-04-01T23:32:18;6.70;;;2.13;;
2452;SDS011;63678;47.994;7.854;2023-04-01T23:34:58;6.40;;;2.45;;
2452;SDS011;63678;47.994;7.854;2023-04-01T23:37:31;5.15;;;2.40;;
2452;SDS011;63678;47.994;7.854;2023-04-01T23:40:04;5.57;;;2.20;;
2452;SDS011;63678;47.994;7.854;2023-04-01T23:42:45;3.95;;;1.92;;
2452;SDS011;63678;47.994;7.854;2023-04-01T23:45:17;6.30;;;1.93;;
2452;SDS011;63678;47.994;7.854;2023-04-01T23:47:51;4.82;;;2.25;;
2452;SDS011;63678;47.994;7.854;2023-04-01T23:50:25;4.72;;;2.17;;
2452;SDS011;63678;47.994;7.854;2023-04-01T23:53:02;4.57;;;2.20;;
2452;SDS011;63678;47.994;7.854;2023-04-01T23:55:43;4.13;;;2.25;;
2452;SDS011;63678;47.994;7.854;2023-04-01T23:58:27;4.88;;;2.20;;
